createdAt,value
2019-01-26T00:02:17.935Z,6.53
2019-01-26T00:07:24.045Z,7.17
2019-01-26T00:12:30.099Z,7.23
2019-01-26T00:17:36.449Z,12.17
2019-01-26T00:22:42.783Z,13.30
2019-01-26T00:27:48.907Z,13.29
2019-01-26T00:32:55.049Z,7.04
2019-01-26T00:38:01.125Z,9.18
2019-01-26T00:43:07.242Z,9.62
2019-01-26T00:48:13.532Z,11.13
2019-01-26T00:53:19.587Z,10.06
2019-01-26T00:58:25.929Z,8.69
2019-01-26T01:03:32.129Z,7.10
2019-01-26T01:08:38.307Z,6.26
2019-01-26T01:13:44.462Z,6.03
2019-01-26T01:18:50.777Z,5.68
2019-01-26T01:23:57.016Z,5.50
2019-01-26T01:29:03.374Z,5.24
2019-01-26T01:34:09.405Z,5.80
2019-01-26T01:39:15.867Z,9.92
2019-01-26T01:44:21.995Z,10.63
2019-01-26T01:49:28.087Z,9.87
2019-01-26T01:54:34.386Z,9.00
2019-01-26T01:59:40.611Z,11.94
2019-01-26T02:04:46.765Z,7.58
2019-01-26T02:09:52.994Z,6.76
2019-01-26T02:14:59.576Z,6.68
2019-01-26T02:20:05.887Z,7.68
2019-01-26T02:25:12.243Z,6.51
2019-01-26T02:30:18.488Z,6.11
2019-01-26T02:35:24.799Z,5.77
2019-01-26T02:40:31.238Z,5.58
2019-01-26T02:45:37.666Z,4.73
2019-01-26T02:50:43.900Z,4.86
2019-01-26T02:55:50.174Z,4.26
2019-01-26T03:00:56.616Z,4.09
2019-01-26T03:06:03.121Z,4.11
2019-01-26T03:11:09.629Z,3.71
2019-01-26T03:16:16.185Z,6.03
2019-01-26T03:21:22.644Z,4.30
2019-01-26T03:26:29.215Z,4.28
2019-01-26T03:31:35.680Z,4.01
2019-01-26T03:36:41.991Z,5.62
2019-01-26T03:41:48.689Z,4.04
2019-01-26T03:46:55.162Z,3.92
2019-01-26T03:52:01.853Z,3.55
2019-01-26T03:57:08.064Z,3.16
2019-01-26T04:02:14.571Z,3.19
2019-01-26T04:07:20.872Z,4.38
2019-01-26T04:12:27.070Z,3.06
2019-01-26T04:17:33.452Z,3.12
2019-01-26T04:22:39.833Z,2.83
2019-01-26T04:27:46.172Z,3.46
2019-01-26T04:32:52.963Z,3.28
2019-01-26T04:37:59.285Z,3.46
2019-01-26T04:43:05.637Z,3.59
2019-01-26T04:48:12.354Z,4.09
2019-01-26T04:53:19.252Z,4.20
2019-01-26T04:58:25.735Z,4.59
2019-01-26T05:03:32.398Z,5.16
2019-01-26T05:08:39.930Z,8.21
2019-01-26T05:13:46.126Z,6.29
2019-01-26T05:18:52.528Z,6.40
2019-01-26T05:23:58.786Z,6.44
2019-01-26T05:29:05.225Z,6.94
2019-01-26T05:39:21.117Z,6.68
2019-01-26T05:44:27.133Z,7.35
2019-01-26T05:49:33.145Z,7.16
2019-01-26T05:54:39.181Z,12.59
2019-01-26T05:59:45.206Z,8.93
2019-01-26T06:04:51.192Z,8.84
2019-01-26T06:09:57.171Z,9.05
2019-01-26T06:15:05.455Z,9.38
2019-01-26T06:20:11.440Z,14.76
2019-01-26T06:25:17.404Z,15.57
2019-01-26T06:30:23.400Z,16.38
2019-01-26T06:35:29.408Z,10.82
2019-01-26T06:40:35.619Z,10.27
2019-01-26T06:45:41.596Z,15.68
2019-01-26T06:50:47.604Z,11.80
2019-01-26T06:55:53.593Z,11.85
2019-01-26T07:00:59.641Z,11.69
2019-01-26T07:06:05.677Z,19.65
2019-01-26T07:11:11.732Z,18.89
2019-01-26T07:16:17.934Z,11.98
2019-01-26T07:21:24.010Z,11.64
2019-01-26T07:26:30.042Z,12.04
2019-01-26T07:31:36.083Z,12.56
2019-01-26T07:36:42.204Z,19.20
2019-01-26T07:41:48.300Z,12.36
2019-01-26T07:46:54.444Z,12.07
2019-01-26T07:52:00.516Z,11.84
2019-01-26T07:57:06.590Z,11.16
2019-01-26T08:02:12.609Z,10.42
2019-01-26T08:07:18.691Z,10.90
2019-01-26T08:12:25.101Z,10.42
2019-01-26T08:17:31.137Z,16.00
2019-01-26T08:22:37.194Z,11.00
2019-01-26T08:27:43.498Z,10.81
2019-01-26T08:32:49.608Z,10.94
2019-01-26T08:37:55.635Z,15.01
2019-01-26T08:43:01.748Z,9.23
2019-01-26T08:48:08.053Z,9.09
2019-01-26T08:53:14.055Z,12.75
2019-01-26T08:58:20.040Z,7.73
2019-01-26T09:03:26.049Z,6.91
2019-01-26T09:08:32.051Z,6.90
2019-01-26T09:13:38.114Z,6.65
2019-01-26T09:18:44.184Z,6.51
2019-01-26T09:23:50.189Z,8.53
2019-01-26T09:33:56.275Z,6.64
2019-01-26T09:39:02.350Z,7.80
2019-01-26T09:44:08.634Z,6.28
2019-01-26T09:49:15.240Z,5.43
2019-01-26T09:54:21.715Z,7.85
2019-01-26T09:59:29.565Z,8.14
2019-01-26T10:04:36.195Z,4.60
2019-01-26T10:09:42.220Z,5.51
2019-01-26T10:14:48.322Z,6.30
2019-01-26T10:19:54.359Z,7.25
2019-01-26T10:25:00.390Z,11.71
2019-01-26T10:30:06.475Z,7.33
2019-01-26T10:35:12.531Z,6.52
2019-01-26T10:40:18.748Z,4.38
2019-01-26T10:45:24.768Z,5.07
2019-01-26T10:50:30.769Z,3.14
2019-01-26T10:55:36.807Z,3.86
2019-01-26T11:00:42.872Z,3.02
2019-01-26T11:05:48.981Z,5.39
2019-01-26T11:10:55.063Z,3.38
2019-01-26T11:16:01.303Z,3.34
2019-01-26T11:21:07.355Z,3.42
2019-01-26T11:26:13.471Z,5.23
2019-01-26T11:31:19.497Z,3.31
2019-01-26T11:36:25.524Z,3.26
2019-01-26T11:41:31.570Z,4.06
2019-01-26T11:46:37.591Z,6.94
2019-01-26T11:51:43.855Z,4.53
2019-01-26T11:56:49.957Z,4.43
2019-01-26T12:01:56.067Z,4.27
2019-01-26T12:07:02.079Z,6.62
2019-01-26T12:12:08.256Z,4.56
2019-01-26T12:17:14.372Z,4.51
2019-01-26T12:22:20.401Z,4.42
2019-01-26T12:27:26.453Z,4.14
2019-01-26T12:32:32.572Z,5.29
2019-01-26T12:37:39.322Z,3.70
2019-01-26T12:42:44.092Z,4.29
2019-01-26T12:47:50.265Z,4.07
2019-01-26T12:52:56.346Z,4.11
2019-01-26T12:58:02.410Z,3.66
2019-01-26T13:03:08.486Z,3.19
2019-01-26T13:08:14.629Z,3.14
2019-01-26T13:13:20.657Z,3.10
2019-01-26T13:18:26.674Z,3.51
2019-01-26T13:23:32.779Z,2.99
2019-01-26T13:28:38.914Z,4.16
2019-01-26T13:33:45.005Z,4.49
2019-01-26T13:38:51.134Z,5.98
2019-01-26T13:43:57.156Z,3.21
2019-01-26T13:49:03.157Z,5.67
2019-01-26T13:54:09.174Z,1.79
2019-01-26T13:59:15.226Z,1.07
2019-01-26T14:04:21.238Z,0.95
2019-01-26T14:09:27.281Z,1.21
2019-01-26T14:14:33.270Z,1.21
2019-01-26T14:19:39.337Z,0.75
2019-01-26T14:24:45.763Z,0.72
2019-01-26T14:29:51.478Z,0.62
2019-01-26T14:34:57.525Z,0.65
2019-01-26T14:40:03.533Z,1.00
2019-01-26T14:45:11.181Z,0.82
2019-01-26T14:50:17.873Z,0.86
2019-01-26T14:55:26.533Z,0.86
2019-01-26T15:00:32.565Z,1.08
2019-01-26T15:05:38.619Z,0.78
2019-01-26T15:10:44.929Z,0.82
2019-01-26T15:15:50.912Z,0.95
2019-01-26T15:20:57.029Z,0.86
2019-01-26T15:26:03.244Z,1.23
2019-01-26T15:31:09.254Z,0.76
2019-01-26T15:36:15.290Z,0.90
2019-01-26T15:41:21.680Z,1.24
2019-01-26T15:46:27.721Z,1.46
2019-01-26T15:51:33.735Z,0.77
2019-01-26T15:56:39.751Z,1.17
2019-01-26T16:01:45.775Z,1.09
2019-01-26T16:06:51.744Z,0.89
2019-01-26T16:11:58.171Z,0.76
2019-01-26T16:17:04.216Z,1.48
2019-01-26T16:22:10.282Z,1.12
2019-01-26T16:27:17.326Z,1.02
2019-01-26T16:32:23.595Z,1.24
2019-01-26T16:37:29.716Z,1.67
2019-01-26T16:42:35.821Z,0.94
2019-01-26T16:47:42.163Z,1.34
2019-01-26T16:52:48.158Z,1.09
2019-01-26T16:57:54.151Z,1.17
2019-01-26T17:03:00.322Z,1.30
2019-01-26T17:08:06.467Z,1.88
2019-01-26T17:13:12.710Z,1.19
2019-01-26T17:18:19.020Z,1.81
2019-01-26T17:23:25.092Z,2.03
2019-01-26T17:28:31.316Z,3.27
2019-01-26T17:33:37.323Z,2.40
2019-01-26T17:38:43.492Z,1.76
2019-01-26T17:43:49.537Z,1.81
2019-01-26T17:48:55.725Z,2.56
2019-01-26T17:54:01.776Z,1.84
2019-01-26T17:59:07.846Z,1.56
2019-01-26T18:04:13.857Z,1.55
2019-01-26T18:09:19.844Z,1.75
2019-01-26T18:14:25.899Z,1.63
2019-01-26T18:19:31.984Z,1.49
2019-01-26T18:24:37.995Z,1.72
2019-01-26T18:29:43.985Z,2.06
2019-01-26T18:34:50.005Z,1.38
2019-01-26T18:39:56.024Z,1.70
2019-01-26T18:45:02.267Z,2.16
2019-01-26T18:50:08.270Z,1.42
2019-01-26T18:55:14.289Z,1.89
2019-01-26T19:00:20.355Z,1.29
2019-01-26T19:05:26.470Z,1.22
2019-01-26T19:10:32.509Z,1.14
2019-01-26T19:15:39.564Z,1.07
2019-01-26T19:20:44.505Z,0.88
2019-01-26T19:25:50.442Z,1.61
2019-01-26T19:30:56.521Z,0.79
2019-01-26T19:36:02.756Z,0.76
2019-01-26T19:41:08.844Z,0.81
2019-01-26T19:46:14.993Z,0.85
2019-01-26T19:51:21.023Z,0.56
2019-01-26T19:56:27.215Z,0.61
2019-01-26T20:01:34.487Z,0.55
2019-01-26T20:06:40.835Z,0.56
2019-01-26T20:11:46.885Z,0.65
2019-01-26T20:16:52.936Z,0.42
2019-01-26T20:21:59.018Z,0.55
2019-01-26T20:27:05.128Z,0.55
2019-01-26T20:32:11.160Z,0.52
2019-01-26T20:37:18.455Z,0.49
2019-01-26T20:42:24.495Z,0.58
2019-01-26T20:47:31.472Z,1.08
2019-01-26T20:52:36.386Z,0.60
2019-01-26T20:57:42.566Z,0.98
2019-01-26T21:02:48.583Z,0.82
2019-01-26T21:07:54.624Z,0.84
2019-01-26T21:13:00.664Z,1.13
2019-01-26T21:18:06.760Z,0.98
2019-01-26T21:23:12.875Z,1.15
2019-01-26T21:28:18.928Z,1.09
2019-01-26T21:33:24.988Z,0.96
2019-01-26T21:38:31.020Z,0.86
2019-01-26T21:43:37.050Z,1.20
2019-01-26T21:48:43.223Z,0.88
2019-01-26T21:53:49.344Z,0.84
2019-01-26T21:58:55.404Z,1.55
2019-01-26T22:04:01.482Z,0.95
2019-01-26T22:09:07.523Z,0.96
2019-01-26T22:14:13.636Z,0.98
2019-01-26T22:19:21.842Z,0.82
2019-01-26T22:24:25.436Z,0.81
2019-01-26T22:29:31.539Z,0.76
2019-01-26T22:34:37.884Z,0.92
2019-01-26T22:39:44.344Z,1.01
2019-01-26T22:44:50.509Z,0.82
2019-01-26T22:49:56.603Z,1.00
2019-01-26T22:55:02.743Z,0.91
2019-01-26T23:00:08.812Z,0.55
2019-01-26T23:05:14.839Z,0.87
2019-01-26T23:10:20.910Z,0.69
2019-01-26T23:15:27.069Z,0.81
2019-01-26T23:20:33.123Z,0.47
2019-01-26T23:25:39.336Z,1.26
2019-01-26T23:30:45.374Z,0.61
2019-01-26T23:35:51.726Z,0.97
2019-01-26T23:40:57.782Z,0.48
2019-01-26T23:46:03.807Z,0.68
2019-01-26T23:51:09.933Z,0.72
2019-01-26T23:56:16.014Z,0.45
